createdAt,value
2023-04-22T00:02:27.117Z,100.00
2023-04-22T00:04:55.176Z,100.00
2023-04-22T00:07:23.149Z,100.00
2023-04-22T00:09:51.212Z,100.00
2023-04-22T00:12:20.371Z,100.00
2023-04-22T00:14:48.135Z,100.00
2023-04-22T00:17:16.015Z,100.00
2023-04-22T00:19:43.895Z,100.00
2023-04-22T00:22:11.638Z,100.00
2023-04-22T00:24:39.422Z,100.00
2023-04-22T00:27:08.104Z,100.00
2023-04-22T00:29:37.429Z,100.00
2023-04-22T00:32:05.547Z,100.00
2023-04-22T00:34:33.363Z,100.00
2023-04-22T00:37:01.379Z,100.00
2023-04-22T00:39:29.269Z,100.00
2023-04-22T00:41:57.282Z,100.00
2023-04-22T00:44:26.056Z,100.00
2023-04-22T00:46:56.263Z,100.00
2023-04-22T00:49:26.226Z,100.00
2023-04-22T00:51:54.035Z,100.00
2023-04-22T00:54:21.872Z,100.00
2023-04-22T00:56:50.223Z,100.00
2023-04-22T00:59:17.987Z,100.00
2023-04-22T01:01:45.866Z,100.00
2023-04-22T01:04:16.272Z,100.00
2023-04-22T01:06:44.969Z,100.00
2023-04-22T01:09:13.167Z,100.00
2023-04-22T01:11:41.101Z,100.00
2023-04-22T01:14:08.918Z,100.00
2023-04-22T01:16:39.030Z,100.00
2023-04-22T01:19:08.278Z,100.00
2023-04-22T01:21:39.788Z,100.00
2023-04-22T01:24:09.752Z,100.00
2023-04-22T01:26:38.028Z,100.00
2023-04-22T01:29:07.481Z,100.00
2023-04-22T01:31:35.665Z,100.00
2023-04-22T01:34:03.507Z,100.00
2023-04-22T01:36:32.763Z,100.00
2023-04-22T01:39:00.786Z,100.00
2023-04-22T01:41:30.555Z,100.00
2023-04-22T01:43:59.519Z,100.00
2023-04-22T01:46:27.562Z,100.00
2023-04-22T01:48:55.467Z,100.00
2023-04-22T01:51:23.617Z,100.00
2023-04-22T01:53:52.244Z,100.00
2023-04-22T01:56:20.027Z,100.00
2023-04-22T01:58:49.126Z,100.00
2023-04-22T02:01:17.087Z,100.00
2023-04-22T02:03:45.001Z,100.00
2023-04-22T02:06:12.950Z,100.00
2023-04-22T02:08:40.855Z,100.00
2023-04-22T02:11:08.695Z,100.00
2023-04-22T02:13:37.705Z,100.00
2023-04-22T02:16:08.361Z,100.00
2023-04-22T02:18:36.555Z,100.00
2023-04-22T02:21:04.465Z,100.00
2023-04-22T02:23:32.559Z,100.00
2023-04-22T02:26:00.722Z,100.00
2023-04-22T02:28:28.478Z,100.00
2023-04-22T02:30:56.434Z,100.00
2023-04-22T02:33:25.623Z,100.00
2023-04-22T02:35:53.388Z,100.00
2023-04-22T02:38:21.213Z,100.00
2023-04-22T02:40:48.990Z,100.00
2023-04-22T02:43:16.733Z,100.00
2023-04-22T02:45:44.545Z,100.00
2023-04-22T02:48:12.336Z,100.00
2023-04-22T02:50:41.534Z,100.00
2023-04-22T02:53:09.458Z,100.00
2023-04-22T02:55:37.190Z,100.00
2023-04-22T02:58:04.991Z,100.00
2023-04-22T03:00:32.878Z,100.00
2023-04-22T03:03:00.839Z,100.00
2023-04-22T03:05:28.980Z,100.00
2023-04-22T03:07:58.332Z,100.00
2023-04-22T03:10:26.077Z,100.00
2023-04-22T03:12:53.854Z,100.00
2023-04-22T03:15:22.653Z,100.00
2023-04-22T03:17:50.655Z,100.00
2023-04-22T03:20:18.698Z,100.00
2023-04-22T03:22:46.569Z,100.00
2023-04-22T03:25:15.751Z,100.00
2023-04-22T03:27:43.499Z,100.00
2023-04-22T03:30:11.808Z,100.00
2023-04-22T03:32:39.577Z,100.00
2023-04-22T03:35:08.140Z,100.00
2023-04-22T03:37:35.976Z,100.00
2023-04-22T03:40:05.645Z,100.00
2023-04-22T03:42:34.740Z,100.00
2023-04-22T03:45:02.560Z,100.00
2023-04-22T03:47:30.390Z,100.00
2023-04-22T03:49:58.158Z,100.00
2023-04-22T03:52:25.967Z,100.00
2023-04-22T03:54:53.705Z,100.00
2023-04-22T03:57:21.451Z,100.00
2023-04-22T03:59:50.671Z,100.00
2023-04-22T04:02:18.529Z,100.00
2023-04-22T04:04:46.797Z,100.00
2023-04-22T04:07:15.230Z,100.00
2023-04-22T04:09:43.059Z,100.00
2023-04-22T04:12:10.890Z,100.00
2023-04-22T04:14:38.666Z,100.00
2023-04-22T04:17:10.143Z,100.00
2023-04-22T04:19:38.218Z,100.00
2023-04-22T04:22:06.898Z,100.00
2023-04-22T04:24:36.682Z,100.00
2023-04-22T04:27:04.705Z,100.00
2023-04-22T04:29:32.488Z,100.00
2023-04-22T04:32:00.241Z,100.00
2023-04-22T04:34:29.358Z,100.00
2023-04-22T04:36:57.139Z,100.00
2023-04-22T04:39:26.529Z,100.00
2023-04-22T04:41:55.212Z,100.00
2023-04-22T04:44:23.184Z,100.00
2023-04-22T04:46:52.008Z,100.00
2023-04-22T04:49:20.870Z,100.00
2023-04-22T04:51:51.214Z,100.00
2023-04-22T04:54:18.984Z,100.00
2023-04-22T04:56:46.754Z,100.00
2023-04-22T04:59:14.581Z,100.00
2023-04-22T05:01:42.419Z,100.00
2023-04-22T05:04:10.524Z,100.00
2023-04-22T05:06:38.430Z,100.00
2023-04-22T05:09:08.390Z,100.00
2023-04-22T05:11:36.362Z,100.00
2023-04-22T05:14:04.249Z,100.00
2023-04-22T05:16:32.173Z,100.00
2023-04-22T05:18:59.961Z,100.00
2023-04-22T05:21:27.784Z,100.00
2023-04-22T05:23:55.532Z,100.00
2023-04-22T05:26:24.827Z,100.00
2023-04-22T05:28:52.771Z,100.00
2023-04-22T05:31:20.569Z,100.00
2023-04-22T05:33:48.336Z,100.00
2023-04-22T05:36:16.254Z,100.00
2023-04-22T05:38:44.089Z,100.00
2023-04-22T05:41:11.929Z,100.00
2023-04-22T05:43:41.143Z,100.00
2023-04-22T05:46:09.029Z,100.00
2023-04-22T05:48:36.908Z,100.00
2023-04-22T05:51:05.078Z,100.00
2023-04-22T05:53:32.862Z,100.00
2023-04-22T05:56:00.659Z,100.00
2023-04-22T05:58:28.513Z,100.00
2023-04-22T06:00:57.620Z,100.00
2023-04-22T06:03:25.487Z,100.00
2023-04-22T06:05:54.185Z,100.00
2023-04-22T06:08:22.223Z,100.00
2023-04-22T06:10:50.785Z,100.00
2023-04-22T06:13:25.447Z,100.00
2023-04-22T06:15:53.373Z,100.00
2023-04-22T06:18:22.651Z,99.86
2023-04-22T06:20:50.427Z,100.00
2023-04-22T06:23:18.202Z,99.75
2023-04-22T06:25:47.215Z,98.08
2023-04-22T06:28:14.981Z,96.37
2023-04-22T06:30:42.749Z,93.16
2023-04-22T06:33:10.611Z,90.75
2023-04-22T06:35:39.746Z,91.28
2023-04-22T06:38:07.491Z,91.30
2023-04-22T06:40:35.362Z,90.26
2023-04-22T06:43:03.120Z,89.15
2023-04-22T06:45:31.194Z,90.18
2023-04-22T06:47:59.064Z,88.99
2023-04-22T06:50:27.275Z,88.00
2023-04-22T06:52:59.269Z,88.16
2023-04-22T06:55:27.084Z,87.59
2023-04-22T06:57:54.929Z,87.45
2023-04-22T07:00:22.700Z,86.09
2023-04-22T07:02:50.618Z,85.73
2023-04-22T07:05:18.725Z,83.64
2023-04-22T07:07:46.496Z,83.84
2023-04-22T07:10:15.694Z,81.07
2023-04-22T07:12:43.499Z,81.69
2023-04-22T07:15:12.299Z,81.40
2023-04-22T07:17:40.415Z,79.14
2023-04-22T07:20:09.610Z,79.52
2023-04-22T07:22:37.371Z,80.43
2023-04-22T07:25:07.224Z,79.27
2023-04-22T07:27:37.503Z,78.70
2023-04-22T07:30:07.164Z,76.38
2023-04-22T07:32:35.012Z,76.81
2023-04-22T07:35:02.915Z,76.34
2023-04-22T07:37:30.908Z,76.57
2023-04-22T07:39:58.674Z,75.30
2023-04-22T07:42:26.463Z,74.28
2023-04-22T07:44:55.611Z,73.29
2023-04-22T07:47:23.393Z,73.29
2023-04-22T07:49:51.136Z,72.19
2023-04-22T07:52:19.820Z,73.39
2023-04-22T07:54:47.637Z,72.41
2023-04-22T07:57:15.395Z,71.35
2023-04-22T07:59:43.222Z,71.37
2023-04-22T08:02:12.342Z,71.59
2023-04-22T08:04:40.258Z,71.67
2023-04-22T08:07:29.859Z,69.52
2023-04-22T08:09:56.992Z,69.01
2023-04-22T08:12:24.864Z,69.77
2023-04-22T08:14:52.670Z,70.77
2023-04-22T08:17:22.921Z,69.71
2023-04-22T08:19:51.022Z,68.24
2023-04-22T08:22:18.915Z,69.00
2023-04-22T08:24:46.760Z,68.19
2023-04-22T08:27:14.541Z,68.76
2023-04-22T08:29:42.715Z,67.77
2023-04-22T08:32:10.955Z,68.49
2023-04-22T08:34:40.394Z,67.01
2023-04-22T08:37:09.075Z,66.57
2023-04-22T08:39:37.120Z,66.74
2023-04-22T08:42:05.179Z,67.36
2023-04-22T08:44:32.971Z,69.01
2023-04-22T08:47:02.949Z,66.84
2023-04-22T08:49:31.421Z,66.21
2023-04-22T08:52:00.561Z,65.80
2023-04-22T08:54:28.608Z,65.12
2023-04-22T08:56:56.651Z,65.51
2023-04-22T08:59:24.713Z,64.92
2023-04-22T09:01:54.404Z,64.30
2023-04-22T09:04:22.649Z,64.52
2023-04-22T09:06:50.597Z,64.22
2023-04-22T09:09:20.640Z,64.25
2023-04-22T09:11:48.427Z,63.99
2023-04-22T09:14:17.554Z,63.40
2023-04-22T09:16:48.712Z,63.51
2023-04-22T09:19:16.926Z,63.02
2023-04-22T09:21:45.912Z,63.12
2023-04-22T09:24:15.535Z,62.70
2023-04-22T09:26:44.608Z,62.20
2023-04-22T09:29:15.842Z,62.67
2023-04-22T09:31:44.007Z,63.31
2023-04-22T09:34:11.835Z,60.81
2023-04-22T09:36:40.665Z,60.44
2023-04-22T09:39:08.931Z,59.92
2023-04-22T09:41:38.751Z,60.11
2023-04-22T09:44:11.188Z,59.78
2023-04-22T09:46:39.017Z,60.11
2023-04-22T09:49:06.787Z,58.26
2023-04-22T09:51:34.614Z,60.44
2023-04-22T09:54:06.287Z,60.71
2023-04-22T09:56:48.568Z,60.82
2023-04-22T09:59:22.012Z,60.24
2023-04-22T10:01:50.947Z,57.23
2023-04-22T10:04:21.559Z,58.72
2023-04-22T10:06:49.716Z,58.89
2023-04-22T10:09:20.035Z,55.61
2023-04-22T10:11:48.760Z,55.86
2023-04-22T10:14:17.995Z,55.33
2023-04-22T10:16:47.988Z,55.71
2023-04-22T10:19:21.666Z,53.79
2023-04-22T10:21:51.313Z,53.87
2023-04-22T10:24:20.363Z,52.78
2023-04-22T10:26:57.169Z,51.53
2023-04-22T10:29:27.827Z,52.14
2023-04-22T10:31:58.372Z,50.84
2023-04-22T10:34:26.332Z,51.51
2023-04-22T10:36:59.292Z,51.36
2023-04-22T10:39:28.778Z,49.74
2023-04-22T10:42:05.279Z,48.43
2023-04-22T10:44:48.868Z,49.40
2023-04-22T10:47:30.366Z,49.15
2023-04-22T10:50:11.997Z,49.95
2023-04-22T10:52:41.324Z,48.98
2023-04-22T10:55:10.852Z,49.19
2023-04-22T10:57:41.696Z,49.37
2023-04-22T11:00:23.517Z,48.06
2023-04-22T11:03:08.951Z,48.56
2023-04-22T11:05:37.601Z,47.26
2023-04-22T11:08:07.951Z,47.85
2023-04-22T11:10:43.065Z,45.37
2023-04-22T11:13:13.935Z,45.67
2023-04-22T11:15:45.623Z,44.01
2023-04-22T11:18:20.814Z,45.52
2023-04-22T11:20:49.911Z,43.72
2023-04-22T11:23:23.382Z,44.16
2023-04-22T11:25:56.523Z,44.57
2023-04-22T11:28:24.537Z,43.49
2023-04-22T11:30:54.190Z,45.93
2023-04-22T11:33:21.997Z,45.59
2023-04-22T11:35:50.602Z,43.69
2023-04-22T11:38:18.509Z,43.58
2023-04-22T11:40:47.485Z,42.91
2023-04-22T11:43:15.665Z,41.73
2023-04-22T11:45:43.738Z,41.87
2023-04-22T11:48:12.971Z,42.75
2023-04-22T11:50:44.205Z,41.01
2023-04-22T11:53:16.699Z,42.47
2023-04-22T11:55:46.168Z,42.57
2023-04-22T11:58:15.850Z,43.45
2023-04-22T12:00:45.188Z,40.97
2023-04-22T12:03:18.892Z,43.14
2023-04-22T12:05:48.385Z,41.96
2023-04-22T12:08:17.650Z,40.27
2023-04-22T12:10:48.082Z,41.85
2023-04-22T12:13:20.176Z,41.83
2023-04-22T12:15:48.229Z,40.90
2023-04-22T12:18:17.498Z,39.25
2023-04-22T12:20:45.265Z,39.76
2023-04-22T12:23:15.335Z,41.76
2023-04-22T12:25:44.132Z,40.88
2023-04-22T12:28:12.390Z,40.87
2023-04-22T12:30:40.213Z,41.72
2023-04-22T12:33:08.032Z,38.96
2023-04-22T12:35:37.139Z,40.02
2023-04-22T12:38:04.948Z,39.71
2023-04-22T12:40:32.718Z,39.37
2023-04-22T12:43:01.068Z,37.68
2023-04-22T12:45:28.944Z,40.89
2023-04-22T12:47:57.986Z,39.21
2023-04-22T12:50:25.841Z,38.44
2023-04-22T12:52:55.154Z,38.46
2023-04-22T12:55:22.934Z,38.22
2023-04-22T12:57:51.060Z,39.83
2023-04-22T13:00:19.128Z,39.28
2023-04-22T13:02:48.340Z,40.88
2023-04-22T13:05:17.311Z,39.18
2023-04-22T13:07:48.654Z,39.44
2023-04-22T13:10:28.197Z,38.58
2023-04-22T13:13:03.114Z,38.35
2023-04-22T13:15:38.838Z,39.29
2023-04-22T13:18:06.962Z,37.76
2023-04-22T13:20:34.862Z,38.38
2023-04-22T13:23:04.793Z,38.33
2023-04-22T13:25:34.149Z,38.53
2023-04-22T13:28:01.945Z,37.38
2023-04-22T13:30:29.757Z,37.58
2023-04-22T13:32:57.627Z,38.09
2023-04-22T13:35:25.676Z,37.98
2023-04-22T13:37:53.453Z,38.71
2023-04-22T13:40:21.560Z,37.08
2023-04-22T13:42:50.785Z,36.86
2023-04-22T13:45:18.754Z,37.60
2023-04-22T13:47:46.998Z,37.45
2023-04-22T13:50:14.923Z,36.55
2023-04-22T13:52:42.728Z,37.87
2023-04-22T13:55:10.904Z,37.10
2023-04-22T13:57:38.741Z,36.79
2023-04-22T14:00:09.369Z,36.86
2023-04-22T14:02:37.239Z,37.56
2023-04-22T14:05:05.894Z,37.67
2023-04-22T14:07:33.677Z,37.01
2023-04-22T14:10:01.395Z,38.55
2023-04-22T14:12:29.268Z,36.88
2023-04-22T14:14:57.033Z,37.08
2023-04-22T14:17:27.779Z,37.17
2023-04-22T14:19:55.973Z,36.96
2023-04-22T14:22:23.736Z,37.61
2023-04-22T14:24:51.475Z,37.86
2023-04-22T14:27:19.366Z,37.79
2023-04-22T14:29:47.152Z,38.20
2023-04-22T14:32:15.861Z,38.52
2023-04-22T14:34:46.675Z,37.80
2023-04-22T14:37:14.434Z,38.66
2023-04-22T14:39:42.390Z,39.11
2023-04-22T14:42:10.375Z,38.24
2023-04-22T14:44:38.158Z,39.41
2023-04-22T14:47:06.236Z,39.02
2023-04-22T14:49:34.066Z,39.67
2023-04-22T14:52:03.259Z,40.38
2023-04-22T14:54:31.428Z,39.96
2023-04-22T14:56:59.488Z,39.68
2023-04-22T14:59:27.790Z,39.52
2023-04-22T15:01:55.822Z,38.57
2023-04-22T15:04:24.808Z,40.07
2023-04-22T15:06:57.348Z,40.58
2023-04-22T15:09:37.795Z,39.74
2023-04-22T15:12:07.935Z,41.27
2023-04-22T15:14:36.623Z,41.01
2023-04-22T15:17:05.071Z,41.21
2023-04-22T15:19:33.390Z,40.69
2023-04-22T15:22:01.165Z,40.79
2023-04-22T15:24:30.369Z,41.48
2023-04-22T15:26:58.565Z,39.91
2023-04-22T15:29:28.361Z,40.73
2023-04-22T15:31:56.654Z,40.80
2023-04-22T15:34:24.884Z,40.81
2023-04-22T15:36:52.804Z,41.46
2023-04-22T15:39:20.636Z,40.28
2023-04-22T15:41:49.725Z,38.92
2023-04-22T15:44:17.647Z,39.68
2023-04-22T15:46:46.796Z,40.65
2023-04-22T15:49:15.636Z,40.02
2023-04-22T15:51:43.575Z,40.11
2023-04-22T15:54:12.998Z,40.71
2023-04-22T15:56:43.557Z,40.40
2023-04-22T15:59:12.790Z,41.08
2023-04-22T16:01:40.953Z,40.97
2023-04-22T16:04:09.309Z,40.97
2023-04-22T16:06:38.139Z,41.59
2023-04-22T16:09:06.593Z,41.96
2023-04-22T16:11:34.373Z,40.18
2023-04-22T16:14:02.328Z,40.14
2023-04-22T16:16:32.720Z,39.71
2023-04-22T16:19:00.679Z,39.51
2023-04-22T16:21:28.705Z,38.94
2023-04-22T16:23:56.522Z,38.60
2023-04-22T16:26:24.451Z,37.87
2023-04-22T16:28:52.168Z,38.17
2023-04-22T16:31:22.871Z,38.35
2023-04-22T16:33:52.795Z,39.74
2023-04-22T16:36:20.584Z,40.91
2023-04-22T16:38:48.361Z,42.08
2023-04-22T16:41:16.212Z,42.46
2023-04-22T16:43:44.117Z,43.43
2023-04-22T16:46:11.884Z,43.08
2023-04-22T16:48:39.678Z,42.55
2023-04-22T16:51:08.816Z,42.51
2023-04-22T16:53:36.748Z,43.24
2023-04-22T16:56:04.911Z,43.86
2023-04-22T16:58:32.802Z,44.48
2023-04-22T17:01:00.610Z,44.84
2023-04-22T17:03:28.535Z,45.43
2023-04-22T17:05:58.423Z,45.63
2023-04-22T17:08:27.526Z,45.81
2023-04-22T17:10:55.291Z,46.32
2023-04-22T17:13:23.089Z,46.68
2023-04-22T17:15:51.165Z,47.21
2023-04-22T17:18:18.918Z,47.67
2023-04-22T17:20:46.786Z,48.05
2023-04-22T17:23:15.054Z,48.38
2023-04-22T17:25:46.941Z,48.13
2023-04-22T17:28:14.804Z,48.56
2023-04-22T17:30:42.670Z,49.75
2023-04-22T17:33:10.735Z,50.39
2023-04-22T17:35:38.488Z,51.27
2023-04-22T17:38:06.360Z,52.27
2023-04-22T17:40:34.150Z,52.81
2023-04-22T17:43:03.276Z,53.18
2023-04-22T17:45:31.123Z,52.67
2023-04-22T17:47:58.915Z,53.15
2023-04-22T17:50:26.879Z,53.91
2023-04-22T17:52:54.710Z,55.18
2023-04-22T17:55:22.543Z,56.30
2023-04-22T17:57:50.381Z,57.73
2023-04-22T18:00:19.780Z,58.94
2023-04-22T18:02:47.827Z,59.12
2023-04-22T18:05:15.795Z,59.12
2023-04-22T18:07:43.573Z,59.92
2023-04-22T18:10:12.131Z,60.04
2023-04-22T18:12:40.615Z,60.31
2023-04-22T18:15:08.896Z,60.53
2023-04-22T18:17:38.062Z,60.48
2023-04-22T18:20:17.443Z,61.08
2023-04-22T18:22:47.686Z,61.37
2023-04-22T18:25:16.022Z,62.42
2023-04-22T18:27:43.802Z,63.72
2023-04-22T18:30:12.144Z,64.47
2023-04-22T18:32:41.434Z,65.15
2023-04-22T18:35:09.941Z,65.72
2023-04-22T18:37:37.723Z,66.22
2023-04-22T18:40:07.270Z,66.42
2023-04-22T18:42:35.170Z,66.84
2023-04-22T18:45:04.738Z,67.19
2023-04-22T18:47:33.085Z,67.20
2023-04-22T18:50:02.217Z,66.97
2023-04-22T18:52:30.018Z,66.79
2023-04-22T18:54:57.784Z,66.72
2023-04-22T18:57:25.658Z,66.73
2023-04-22T18:59:53.524Z,67.20
2023-04-22T19:02:22.393Z,67.04
2023-04-22T19:04:50.301Z,66.60
2023-04-22T19:07:19.523Z,66.64
2023-04-22T19:09:47.304Z,66.58
2023-04-22T19:12:16.615Z,66.78
2023-04-22T19:14:44.456Z,66.64
2023-04-22T19:17:12.227Z,66.33
2023-04-22T19:19:40.255Z,66.06
2023-04-22T19:22:08.307Z,65.85
2023-04-22T19:24:37.506Z,66.54
2023-04-22T19:27:12.007Z,67.06
2023-04-22T19:29:40.750Z,68.27
2023-04-22T19:32:09.898Z,68.57
2023-04-22T19:34:38.832Z,69.80
2023-04-22T19:37:06.781Z,71.70
2023-04-22T19:39:34.554Z,72.95
2023-04-22T19:42:03.963Z,74.01
2023-04-22T19:44:32.267Z,74.96
2023-04-22T19:47:00.263Z,76.07
2023-04-22T19:49:31.112Z,76.45
2023-04-22T19:51:59.139Z,77.37
2023-04-22T19:54:28.880Z,77.74
2023-04-22T19:56:57.922Z,78.22
2023-04-22T19:59:31.097Z,79.42
2023-04-22T20:01:59.469Z,80.12
2023-04-22T20:04:28.124Z,80.59
2023-04-22T20:06:57.095Z,81.47
2023-04-22T20:09:25.193Z,81.48
2023-04-22T20:11:54.240Z,82.60
2023-04-22T20:14:23.227Z,82.39
2023-04-22T20:16:53.364Z,83.12
2023-04-22T20:19:21.324Z,82.96
2023-04-22T20:21:49.659Z,83.25
2023-04-22T20:24:19.565Z,84.11
2023-04-22T20:26:49.506Z,84.26
2023-04-22T20:29:18.628Z,84.43
2023-04-22T20:31:46.734Z,85.03
2023-04-22T20:34:16.384Z,86.43
2023-04-22T20:36:44.571Z,86.07
2023-04-22T20:39:14.187Z,85.72
2023-04-22T20:41:42.626Z,86.35
2023-04-22T20:44:10.677Z,87.01
2023-04-22T20:46:38.866Z,88.64
2023-04-22T20:49:07.128Z,90.15
2023-04-22T20:51:36.460Z,92.03
2023-04-22T20:54:06.217Z,92.69
2023-04-22T20:56:37.718Z,93.19
2023-04-22T20:59:05.720Z,94.40
2023-04-22T21:01:33.526Z,94.69
2023-04-22T21:04:02.493Z,95.89
2023-04-22T21:06:33.955Z,96.53
2023-04-22T21:09:04.388Z,97.05
2023-04-22T21:11:32.641Z,97.87
2023-04-22T21:14:00.821Z,98.76
2023-04-22T21:16:31.451Z,99.50
2023-04-22T21:19:01.256Z,100.00
2023-04-22T21:21:33.687Z,100.00
2023-04-22T21:24:04.830Z,100.00
2023-04-22T21:26:34.064Z,100.00
2023-04-22T21:29:02.214Z,100.00
2023-04-22T21:31:30.119Z,100.00
2023-04-22T21:33:57.956Z,100.00
2023-04-22T21:36:27.115Z,100.00
2023-04-22T21:38:56.771Z,100.00
2023-04-22T21:41:26.330Z,100.00
2023-04-22T21:43:54.088Z,100.00
2023-04-22T21:46:24.330Z,100.00
2023-04-22T21:48:52.214Z,100.00
2023-04-22T21:51:20.612Z,100.00
2023-04-22T21:53:48.434Z,100.00
2023-04-22T21:56:16.494Z,100.00
2023-04-22T21:58:45.633Z,100.00
2023-04-22T22:01:13.377Z,100.00
2023-04-22T22:03:41.364Z,100.00
2023-04-22T22:06:09.279Z,100.00
2023-04-22T22:08:36.998Z,100.00
2023-04-22T22:11:07.021Z,100.00
2023-04-22T22:13:35.735Z,100.00
2023-04-22T22:16:04.893Z,100.00
2023-04-22T22:18:32.678Z,100.00
2023-04-22T22:21:00.434Z,100.00
2023-04-22T22:23:28.118Z,100.00
2023-04-22T22:25:56.031Z,100.00
2023-04-22T22:28:23.896Z,100.00
2023-04-22T22:30:51.628Z,100.00
2023-04-22T22:33:20.742Z,100.00
2023-04-22T22:35:48.447Z,100.00
2023-04-22T22:38:16.255Z,100.00
2023-04-22T22:40:44.100Z,100.00
2023-04-22T22:43:13.428Z,100.00
2023-04-22T22:45:41.485Z,100.00
2023-04-22T22:48:09.500Z,100.00
2023-04-22T22:50:38.963Z,100.00
2023-04-22T22:53:06.762Z,100.00
2023-04-22T22:55:34.849Z,100.00
2023-04-22T22:58:02.622Z,100.00
2023-04-22T23:00:30.523Z,100.00
2023-04-22T23:02:58.605Z,100.00
2023-04-22T23:05:26.432Z,100.00
2023-04-22T23:07:55.553Z,100.00
2023-04-22T23:10:23.503Z,100.00
2023-04-22T23:12:51.312Z,100.00
2023-04-22T23:15:19.095Z,100.00
2023-04-22T23:17:46.968Z,100.00
2023-04-22T23:20:15.241Z,100.00
2023-04-22T23:22:45.964Z,100.00
2023-04-22T23:25:17.192Z,100.00
2023-04-22T23:27:45.660Z,100.00
2023-04-22T23:30:14.197Z,100.00
2023-04-22T23:32:44.140Z,100.00
2023-04-22T23:35:13.654Z,100.00
2023-04-22T23:37:44.461Z,100.00
2023-04-22T23:40:13.214Z,100.00
2023-04-22T23:42:42.312Z,100.00
2023-04-22T23:45:11.641Z,100.00
2023-04-22T23:47:39.459Z,100.00
2023-04-22T23:50:08.494Z,100.00
2023-04-22T23:52:40.644Z,100.00
2023-04-22T23:55:10.300Z,100.00
2023-04-22T23:57:38.843Z,100.00
